sensor_id;sensor_type;location;lat;lon;timestamp;pressure;altitude;pressure_sealevel;temperature;humidity
14383;BME280;7275;50.328;8.720;2022-10-16T00:01:17;99432.53;;;20.94;59.56
14383;BME280;7275;50.328;8.720;2022-10-16T00:03:47;99439.25;;;20.89;59.84
14383;BME280;7275;50.328;8.720;2022-10-16T00:06:18;99436.84;;;20.86;59.74
14383;BME280;7275;50.328;8.720;2022-10-16T00:08:46;99441.72;;;20.81;59.63
14383;BME280;7275;50.328;8.720;2022-10-16T00:11:16;99436.00;;;20.74;59.61
14383;BME280;7275;50.328;8.720;2022-10-16T00:13:48;99436.28;;;20.71;59.53
14383;BME280;7275;50.328;8.720;2022-10-16T00:16:17;99435.78;;;20.66;59.68
14383;BME280;7275;50.328;8.720;2022-10-16T00:18:46;99434.22;;;20.63;59.79
14383;BME280;7275;50.328;8.720;2022-10-16T00:21:15;99441.31;;;20.64;59.66
14383;BME280;7275;50.328;8.720;2022-10-16T00:23:43;99436.06;;;20.63;59.87
14383;BME280;7275;50.328;8.720;2022-10-16T00:26:12;99422.75;;;20.61;59.82
14383;BME280;7275;50.328;8.720;2022-10-16T00:28:40;99432.53;;;20.62;59.52
14383;BME280;7275;50.328;8.720;2022-10-16T00:31:10;99422.75;;;20.61;59.62
14383;BME280;7275;50.328;8.720;2022-10-16T00:33:39;99425.44;;;20.61;59.64
14383;BME280;7275;50.328;8.720;2022-10-16T00:36:10;99441.81;;;20.58;59.60
14383;BME280;7275;50.328;8.720;2022-10-16T00:38:39;99435.72;;;20.56;59.51
14383;BME280;7275;50.328;8.720;2022-10-16T00:41:09;99432.16;;;20.56;59.43
14383;BME280;7275;50.328;8.720;2022-10-16T00:43:39;99424.34;;;20.53;59.40
14383;BME280;7275;50.328;8.720;2022-10-16T00:46:15;99416.44;;;20.51;59.42
14383;BME280;7275;50.328;8.720;2022-10-16T00:48:47;99422.91;;;20.49;59.56
14383;BME280;7275;50.328;8.720;2022-10-16T00:51:18;99426.44;;;20.49;59.51
14383;BME280;7275;50.328;8.720;2022-10-16T00:53:48;99434.72;;;20.46;59.49
14383;BME280;7275;50.328;8.720;2022-10-16T00:56:16;99440.25;;;20.45;59.56
14383;BME280;7275;50.328;8.720;2022-10-16T00:58:43;99438.56;;;20.44;59.63
14383;BME280;7275;50.328;8.720;2022-10-16T01:01:11;99432.19;;;20.45;59.85
14383;BME280;7275;50.328;8.720;2022-10-16T01:03:39;99444.66;;;20.46;59.64
14383;BME280;7275;50.328;8.720;2022-10-16T01:06:18;99453.53;;;20.46;59.72
14383;BME280;7275;50.328;8.720;2022-10-16T01:08:57;99434.72;;;20.46;59.83
14383;BME280;7275;50.328;8.720;2022-10-16T01:11:33;99451.59;;;20.48;59.99
14383;BME280;7275;50.328;8.720;2022-10-16T01:14:06;99456.72;;;20.51;59.84
14383;BME280;7275;50.328;8.720;2022-10-16T01:16:43;99460.00;;;20.55;59.90
14383;BME280;7275;50.328;8.720;2022-10-16T01:19:17;99465.13;;;20.58;60.03
14383;BME280;7275;50.328;8.720;2022-10-16T01:21:51;99457.56;;;20.63;59.93
14383;BME280;7275;50.328;8.720;2022-10-16T01:24:27;99463.38;;;20.68;59.78
14383;BME280;7275;50.328;8.720;2022-10-16T01:27:07;99459.59;;;20.70;59.96
14383;BME280;7275;50.328;8.720;2022-10-16T01:29:40;99468.00;;;20.77;59.88
14383;BME280;7275;50.328;8.720;2022-10-16T01:32:15;99464.94;;;20.82;59.73
14383;BME280;7275;50.328;8.720;2022-10-16T01:34:48;99459.31;;;20.85;59.60
14383;BME280;7275;50.328;8.720;2022-10-16T01:37:22;99454.50;;;20.88;59.62
14383;BME280;7275;50.328;8.720;2022-10-16T01:39:55;99447.78;;;20.94;59.58
14383;BME280;7275;50.328;8.720;2022-10-16T01:42:30;99449.47;;;20.95;59.61
14383;BME280;7275;50.328;8.720;2022-10-16T01:45:02;99446.69;;;20.96;59.52
14383;BME280;7275;50.328;8.720;2022-10-16T01:47:33;99455.47;;;20.98;59.43
14383;BME280;7275;50.328;8.720;2022-10-16T01:50:04;99472.44;;;20.99;59.63
14383;BME280;7275;50.328;8.720;2022-10-16T01:52:34;99469.50;;;21.02;59.56
14383;BME280;7275;50.328;8.720;2022-10-16T01:55:05;99458.66;;;21.03;59.87
14383;BME280;7275;50.328;8.720;2022-10-16T01:57:36;99454.00;;;21.05;59.80
14383;BME280;7275;50.328;8.720;2022-10-16T02:00:09;99462.06;;;21.05;59.67
14383;BME280;7275;50.328;8.720;2022-10-16T02:02:39;99453.88;;;21.07;59.50
14383;BME280;7275;50.328;8.720;2022-10-16T02:05:12;99453.03;;;21.06;59.66
14383;BME280;7275;50.328;8.720;2022-10-16T02:07:42;99460.81;;;21.09;59.47
14383;BME280;7275;50.328;8.720;2022-10-16T02:10:10;99457.88;;;21.12;59.51
14383;BME280;7275;50.328;8.720;2022-10-16T02:12:41;99458.47;;;21.16;59.59
14383;BME280;7275;50.328;8.720;2022-10-16T02:15:09;99467.16;;;21.19;59.62
14383;BME280;7275;50.328;8.720;2022-10-16T02:17:37;99475.94;;;21.21;59.59
14383;BME280;7275;50.328;8.720;2022-10-16T02:20:05;99481.03;;;21.24;59.58
14383;BME280;7275;50.328;8.720;2022-10-16T02:22:36;99482.75;;;21.25;59.24
14383;BME280;7275;50.328;8.720;2022-10-16T02:25:08;99476.38;;;21.26;59.51
14383;BME280;7275;50.328;8.720;2022-10-16T02:27:42;99471.72;;;21.28;59.36
14383;BME280;7275;50.328;8.720;2022-10-16T02:30:13;99468.31;;;21.26;59.19
14383;BME280;7275;50.328;8.720;2022-10-16T02:32:44;99482.88;;;21.24;59.17
14383;BME280;7275;50.328;8.720;2022-10-16T02:35:15;99484.00;;;21.21;59.27
14383;BME280;7275;50.328;8.720;2022-10-16T02:37:44;99469.84;;;21.19;59.36
14383;BME280;7275;50.328;8.720;2022-10-16T02:40:12;99466.41;;;21.17;59.45
14383;BME280;7275;50.328;8.720;2022-10-16T02:42:42;99469.22;;;21.16;59.65
14383;BME280;7275;50.328;8.720;2022-10-16T02:45:10;99466.66;;;21.14;59.59
14383;BME280;7275;50.328;8.720;2022-10-16T02:47:38;99463.41;;;21.11;59.66
14383;BME280;7275;50.328;8.720;2022-10-16T02:50:06;99465.22;;;21.10;59.89
14383;BME280;7275;50.328;8.720;2022-10-16T02:52:34;99471.56;;;21.09;59.85
14383;BME280;7275;50.328;8.720;2022-10-16T02:55:01;99468.88;;;21.09;60.00
14383;BME280;7275;50.328;8.720;2022-10-16T02:57:29;99469.03;;;21.08;60.02
14383;BME280;7275;50.328;8.720;2022-10-16T02:59:58;99476.22;;;21.07;60.09
14383;BME280;7275;50.328;8.720;2022-10-16T03:02:26;99485.16;;;21.08;60.38
14383;BME280;7275;50.328;8.720;2022-10-16T03:04:53;99485.28;;;21.06;60.46
14383;BME280;7275;50.328;8.720;2022-10-16T03:07:21;99487.97;;;21.06;60.21
14383;BME280;7275;50.328;8.720;2022-10-16T03:09:49;99485.28;;;21.06;60.37
14383;BME280;7275;50.328;8.720;2022-10-16T03:12:16;99487.97;;;21.06;60.47
14383;BME280;7275;50.328;8.720;2022-10-16T03:14:44;99499.59;;;21.07;60.43
14383;BME280;7275;50.328;8.720;2022-10-16T03:17:13;99516.53;;;21.07;60.23
14383;BME280;7275;50.328;8.720;2022-10-16T03:19:43;99523.78;;;21.07;60.42
14383;BME280;7275;50.328;8.720;2022-10-16T03:22:10;99522.78;;;21.08;60.50
14383;BME280;7275;50.328;8.720;2022-10-16T03:24:38;99523.50;;;21.10;60.19
14383;BME280;7275;50.328;8.720;2022-10-16T03:27:05;99511.91;;;21.09;60.28
14383;BME280;7275;50.328;8.720;2022-10-16T03:29:33;99509.09;;;21.11;60.51
14383;BME280;7275;50.328;8.720;2022-10-16T03:32:01;99516.16;;;21.12;60.35
14383;BME280;7275;50.328;8.720;2022-10-16T03:34:30;99507.00;;;21.14;60.12
14383;BME280;7275;50.328;8.720;2022-10-16T03:36:57;99511.00;;;21.20;60.31
14383;BME280;7275;50.328;8.720;2022-10-16T03:39:25;99505.25;;;21.24;59.91
14383;BME280;7275;50.328;8.720;2022-10-16T03:41:53;99507.69;;;21.27;59.69
14383;BME280;7275;50.328;8.720;2022-10-16T03:44:20;99515.47;;;21.30;59.72
14383;BME280;7275;50.328;8.720;2022-10-16T03:46:48;99516.94;;;21.34;59.70
14383;BME280;7275;50.328;8.720;2022-10-16T03:49:15;99526.56;;;21.37;59.71
14383;BME280;7275;50.328;8.720;2022-10-16T03:51:44;99514.56;;;21.41;59.77
14383;BME280;7275;50.328;8.720;2022-10-16T03:54:12;99510.63;;;21.45;59.72
14383;BME280;7275;50.328;8.720;2022-10-16T03:56:39;99514.91;;;21.47;59.51
14383;BME280;7275;50.328;8.720;2022-10-16T03:59:07;99521.16;;;21.48;59.16
14383;BME280;7275;50.328;8.720;2022-10-16T04:01:34;99522.97;;;21.47;59.36
14383;BME280;7275;50.328;8.720;2022-10-16T04:04:02;99520.28;;;21.47;59.19
14383;BME280;7275;50.328;8.720;2022-10-16T04:06:29;99527.63;;;21.45;59.30
14383;BME280;7275;50.328;8.720;2022-10-16T04:08:59;99525.19;;;21.42;59.45
14383;BME280;7275;50.328;8.720;2022-10-16T04:11:26;99530.00;;;21.39;59.34
14383;BME280;7275;50.328;8.720;2022-10-16T04:13:54;99526.44;;;21.38;59.48
14383;BME280;7275;50.328;8.720;2022-10-16T04:16:21;99525.72;;;21.36;59.50
14383;BME280;7275;50.328;8.720;2022-10-16T04:18:48;99527.69;;;21.34;59.40
14383;BME280;7275;50.328;8.720;2022-10-16T04:21:16;99534.91;;;21.34;59.58
14383;BME280;7275;50.328;8.720;2022-10-16T04:23:43;99533.06;;;21.34;59.74
14383;BME280;7275;50.328;8.720;2022-10-16T04:26:12;99534.91;;;21.34;59.45
14383;BME280;7275;50.328;8.720;2022-10-16T04:28:40;99537.63;;;21.34;59.60
14383;BME280;7275;50.328;8.720;2022-10-16T04:31:07;99536.47;;;21.36;59.51
14383;BME280;7275;50.328;8.720;2022-10-16T04:33:35;99544.31;;;21.39;59.29
14383;BME280;7275;50.328;8.720;2022-10-16T04:36:03;99537.91;;;21.40;58.98
14383;BME280;7275;50.328;8.720;2022-10-16T04:38:31;99548.56;;;21.42;59.32
14383;BME280;7275;50.328;8.720;2022-10-16T04:40:58;99553.81;;;21.43;58.93
14383;BME280;7275;50.328;8.720;2022-10-16T04:43:27;99551.00;;;21.45;59.02
14383;BME280;7275;50.328;8.720;2022-10-16T04:45:55;99552.72;;;21.46;58.85
14383;BME280;7275;50.328;8.720;2022-10-16T04:48:23;99559.06;;;21.45;58.59
14383;BME280;7275;50.328;8.720;2022-10-16T04:50:50;99564.44;;;21.45;58.78
14383;BME280;7275;50.328;8.720;2022-10-16T04:53:20;99558.19;;;21.44;58.50
14383;BME280;7275;50.328;8.720;2022-10-16T04:55:48;99558.34;;;21.43;58.47
14383;BME280;7275;50.328;8.720;2022-10-16T04:58:15;99549.41;;;21.42;58.68
14383;BME280;7275;50.328;8.720;2022-10-16T05:00:45;99543.19;;;21.42;58.56
14383;BME280;7275;50.328;8.720;2022-10-16T05:03:13;99544.44;;;21.38;58.56
14383;BME280;7275;50.328;8.720;2022-10-16T05:05:42;99544.81;;;21.33;58.73
14383;BME280;7275;50.328;8.720;2022-10-16T05:08:10;99552.41;;;21.28;58.55
14383;BME280;7275;50.328;8.720;2022-10-16T05:10:37;99548.25;;;21.24;58.84
14383;BME280;7275;50.328;8.720;2022-10-16T05:13:05;99554.03;;;21.20;59.02
14383;BME280;7275;50.328;8.720;2022-10-16T05:15:32;99548.19;;;21.15;59.07
14383;BME280;7275;50.328;8.720;2022-10-16T05:18:01;99558.22;;;21.13;59.13
14383;BME280;7275;50.328;8.720;2022-10-16T05:20:29;99557.50;;;21.11;59.31
14383;BME280;7275;50.328;8.720;2022-10-16T05:22:56;99554.06;;;21.09;59.59
14383;BME280;7275;50.328;8.720;2022-10-16T05:25:24;99556.03;;;21.07;59.40
14383;BME280;7275;50.328;8.720;2022-10-16T05:27:51;99552.50;;;21.06;59.35
14383;BME280;7275;50.328;8.720;2022-10-16T05:30:19;99565.19;;;21.04;59.67
14383;BME280;7275;50.328;8.720;2022-10-16T05:32:47;99560.91;;;21.02;59.62
14383;BME280;7275;50.328;8.720;2022-10-16T05:35:17;99559.31;;;20.99;59.83
14383;BME280;7275;50.328;8.720;2022-10-16T05:37:46;99554.06;;;20.98;59.57
14383;BME280;7275;50.328;8.720;2022-10-16T05:40:14;99556.88;;;20.96;59.82
14383;BME280;7275;50.328;8.720;2022-10-16T05:42:42;99548.81;;;20.96;59.82
14383;BME280;7275;50.328;8.720;2022-10-16T05:45:10;99559.69;;;20.95;59.80
14383;BME280;7275;50.328;8.720;2022-10-16T05:47:39;99557.00;;;20.95;59.74
14383;BME280;7275;50.328;8.720;2022-10-16T05:50:07;99556.75;;;20.98;59.63
14383;BME280;7275;50.328;8.720;2022-10-16T05:52:36;99554.94;;;20.98;59.63
14383;BME280;7275;50.328;8.720;2022-10-16T05:55:04;99570.91;;;21.00;59.72
14383;BME280;7275;50.328;8.720;2022-10-16T05:57:32;99564.69;;;20.99;59.56
14383;BME280;7275;50.328;8.720;2022-10-16T05:59:59;99570.91;;;21.00;59.50
14383;BME280;7275;50.328;8.720;2022-10-16T06:02:27;99567.16;;;21.02;59.74
14383;BME280;7275;50.328;8.720;2022-10-16T06:04:54;99575.81;;;21.06;59.58
14383;BME280;7275;50.328;8.720;2022-10-16T06:07:23;99574.97;;;21.05;59.60
14383;BME280;7275;50.328;8.720;2022-10-16T06:09:52;99579.38;;;21.06;59.53
14383;BME280;7275;50.328;8.720;2022-10-16T06:12:20;99588.31;;;21.07;59.69
14383;BME280;7275;50.328;8.720;2022-10-16T06:14:48;99584.63;;;21.08;59.60
14383;BME280;7275;50.328;8.720;2022-10-16T06:17:15;99586.34;;;21.09;59.57
14383;BME280;7275;50.328;8.720;2022-10-16T06:19:43;99595.22;;;21.09;59.66
14383;BME280;7275;50.328;8.720;2022-10-16T06:22:10;99596.97;;;21.10;59.63
14383;BME280;7275;50.328;8.720;2022-10-16T06:24:38;99592.53;;;21.09;59.55
14383;BME280;7275;50.328;8.720;2022-10-16T06:27:07;99581.94;;;21.08;59.64
14383;BME280;7275;50.328;8.720;2022-10-16T06:29:34;99587.31;;;21.08;59.69
14383;BME280;7275;50.328;8.720;2022-10-16T06:32:02;99591.56;;;21.10;59.65
14383;BME280;7275;50.328;8.720;2022-10-16T06:34:29;99603.06;;;21.12;59.60
14383;BME280;7275;50.328;8.720;2022-10-16T06:36:57;99602.78;;;21.15;59.57
14383;BME280;7275;50.328;8.720;2022-10-16T06:39:24;99605.38;;;21.17;59.17
14383;BME280;7275;50.328;8.720;2022-10-16T06:41:52;99612.34;;;21.19;59.60
14383;BME280;7275;50.328;8.720;2022-10-16T06:44:21;99618.81;;;21.17;59.28
14383;BME280;7275;50.328;8.720;2022-10-16T06:46:48;99619.06;;;21.14;59.66
14383;BME280;7275;50.328;8.720;2022-10-16T06:49:16;99622.84;;;21.11;59.78
14383;BME280;7275;50.328;8.720;2022-10-16T06:51:48;99617.47;;;21.11;59.70
14383;BME280;7275;50.328;8.720;2022-10-16T06:54:16;99612.09;;;21.11;59.66
14383;BME280;7275;50.328;8.720;2022-10-16T06:56:44;99613.81;;;21.12;59.69
14383;BME280;7275;50.328;8.720;2022-10-16T06:59:12;99620.06;;;21.13;59.72
14383;BME280;7275;50.328;8.720;2022-10-16T07:01:40;99616.22;;;21.15;59.72
14383;BME280;7275;50.328;8.720;2022-10-16T07:04:08;99616.00;;;21.18;59.86
14383;BME280;7275;50.328;8.720;2022-10-16T07:06:35;99620.41;;;21.19;59.69
14383;BME280;7275;50.328;8.720;2022-10-16T07:09:04;99634.59;;;21.21;59.51
14383;BME280;7275;50.328;8.720;2022-10-16T07:11:32;99631.63;;;21.24;59.55
14383;BME280;7275;50.328;8.720;2022-10-16T07:14:00;99642.25;;;21.26;59.90
14383;BME280;7275;50.328;8.720;2022-10-16T07:16:29;99646.53;;;21.28;59.96
14383;BME280;7275;50.328;8.720;2022-10-16T07:19:00;99649.06;;;21.30;59.49
14383;BME280;7275;50.328;8.720;2022-10-16T07:21:29;99665.72;;;21.35;59.77
14383;BME280;7275;50.328;8.720;2022-10-16T07:23:59;99663.59;;;21.38;59.55
14383;BME280;7275;50.328;8.720;2022-10-16T07:26:28;99667.88;;;21.41;59.42
14383;BME280;7275;50.328;8.720;2022-10-16T07:28:56;99671.16;;;21.44;59.48
14383;BME280;7275;50.328;8.720;2022-10-16T07:31:25;99674.59;;;21.46;59.47
14383;BME280;7275;50.328;8.720;2022-10-16T07:33:53;99673.50;;;21.49;59.55
14383;BME280;7275;50.328;8.720;2022-10-16T07:36:22;99685.72;;;21.53;59.72
14383;BME280;7275;50.328;8.720;2022-10-16T07:38:50;99692.53;;;21.57;59.49
14383;BME280;7275;50.328;8.720;2022-10-16T07:41:22;99692.16;;;21.62;59.65
14383;BME280;7275;50.328;8.720;2022-10-16T07:43:52;99695.34;;;21.67;59.37
14383;BME280;7275;50.328;8.720;2022-10-16T07:46:22;99705.00;;;21.69;59.69
14383;BME280;7275;50.328;8.720;2022-10-16T07:48:49;99707.28;;;21.74;59.55
14383;BME280;7275;50.328;8.720;2022-10-16T07:51:18;99721.50;;;21.76;59.27
14383;BME280;7275;50.328;8.720;2022-10-16T07:53:48;99721.50;;;21.76;58.94
14383;BME280;7275;50.328;8.720;2022-10-16T07:56:16;99718.06;;;21.74;59.06
14383;BME280;7275;50.328;8.720;2022-10-16T07:58:44;99725.28;;;21.73;59.20
14383;BME280;7275;50.328;8.720;2022-10-16T08:01:14;99724.28;;;21.74;58.97
14383;BME280;7275;50.328;8.720;2022-10-16T08:03:42;99732.38;;;21.74;58.99
14383;BME280;7275;50.328;8.720;2022-10-16T08:06:11;99734.97;;;21.76;59.14
14383;BME280;7275;50.328;8.720;2022-10-16T08:08:38;99732.13;;;21.77;58.93
14383;BME280;7275;50.328;8.720;2022-10-16T08:11:07;99729.44;;;21.77;58.92
14383;BME280;7275;50.328;8.720;2022-10-16T08:13:35;99738.38;;;21.78;59.13
14383;BME280;7275;50.328;8.720;2022-10-16T08:16:03;99748.41;;;21.76;58.80
14383;BME280;7275;50.328;8.720;2022-10-16T08:18:34;99739.59;;;21.74;58.87
14383;BME280;7275;50.328;8.720;2022-10-16T08:21:03;99740.72;;;21.71;59.05
14383;BME280;7275;50.328;8.720;2022-10-16T08:23:31;99739.13;;;21.69;58.95
14383;BME280;7275;50.328;8.720;2022-10-16T08:26:02;99750.84;;;21.68;58.96
14383;BME280;7275;50.328;8.720;2022-10-16T08:28:32;99752.00;;;21.65;59.18
14383;BME280;7275;50.328;8.720;2022-10-16T08:31:07;99753.81;;;21.65;59.38
14383;BME280;7275;50.328;8.720;2022-10-16T08:33:35;99759.78;;;21.68;59.50
14383;BME280;7275;50.328;8.720;2022-10-16T08:36:04;99759.56;;;21.71;59.53
14383;BME280;7275;50.328;8.720;2022-10-16T08:38:32;99751.69;;;21.79;59.15
14383;BME280;7275;50.328;8.720;2022-10-16T08:41:13;99769.06;;;21.86;59.30
14383;BME280;7275;50.328;8.720;2022-10-16T08:43:57;99776.41;;;21.95;59.27
14383;BME280;7275;50.328;8.720;2022-10-16T08:46:36;99779.78;;;22.08;59.35
14383;BME280;7275;50.328;8.720;2022-10-16T08:49:13;99787.94;;;22.18;59.26
14383;BME280;7275;50.328;8.720;2022-10-16T08:51:41;99784.72;;;22.24;58.80
14383;BME280;7275;50.328;8.720;2022-10-16T08:54:20;99795.25;;;22.27;58.88
14383;BME280;7275;50.328;8.720;2022-10-16T08:56:50;99795.25;;;22.27;58.86
14383;BME280;7275;50.328;8.720;2022-10-16T08:59:19;99806.75;;;22.29;58.69
14383;BME280;7275;50.328;8.720;2022-10-16T09:01:50;99799.53;;;22.30;58.47
14383;BME280;7275;50.328;8.720;2022-10-16T09:04:41;99789.88;;;22.27;58.56
14383;BME280;7275;50.328;8.720;2022-10-16T09:07:15;99796.84;;;22.30;58.49
14383;BME280;7275;50.328;8.720;2022-10-16T09:09:56;99798.81;;;22.27;58.68
14383;BME280;7275;50.328;8.720;2022-10-16T09:12:32;99802.25;;;22.30;58.31
14383;BME280;7275;50.328;8.720;2022-10-16T09:15:14;99797.44;;;22.33;58.41
14383;BME280;7275;50.328;8.720;2022-10-16T09:17:53;99801.19;;;22.42;58.92
14383;BME280;7275;50.328;8.720;2022-10-16T09:20:31;99805.53;;;22.54;58.59
14383;BME280;7275;50.328;8.720;2022-10-16T09:23:17;99824.97;;;22.68;58.80
14383;BME280;7275;50.328;8.720;2022-10-16T09:25:47;99825.19;;;22.76;58.39
14383;BME280;7275;50.328;8.720;2022-10-16T09:28:16;99816.56;;;22.82;58.40
14383;BME280;7275;50.328;8.720;2022-10-16T09:30:46;99826.72;;;22.90;57.88
14383;BME280;7275;50.328;8.720;2022-10-16T09:33:15;99829.28;;;22.91;57.94
14383;BME280;7275;50.328;8.720;2022-10-16T09:35:44;99826.56;;;22.91;57.75
14383;BME280;7275;50.328;8.720;2022-10-16T09:38:25;99827.44;;;22.92;57.76
14383;BME280;7275;50.328;8.720;2022-10-16T09:40:54;99834.28;;;22.96;58.15
14383;BME280;7275;50.328;8.720;2022-10-16T09:43:33;99845.50;;;23.01;57.77
14383;BME280;7275;50.328;8.720;2022-10-16T09:46:05;99845.38;;;23.02;57.65
14383;BME280;7275;50.328;8.720;2022-10-16T09:48:36;99843.66;;;23.01;57.67
14383;BME280;7275;50.328;8.720;2022-10-16T09:51:13;99841.97;;;23.00;57.81
14383;BME280;7275;50.328;8.720;2022-10-16T09:53:45;99851.19;;;22.98;57.97
14383;BME280;7275;50.328;8.720;2022-10-16T09:56:21;99848.63;;;22.96;57.77
14383;BME280;7275;50.328;8.720;2022-10-16T09:58:50;99862.22;;;22.95;57.98
14383;BME280;7275;50.328;8.720;2022-10-16T10:01:20;99863.34;;;22.92;57.71
14383;BME280;7275;50.328;8.720;2022-10-16T10:03:49;99870.81;;;22.89;58.06
14383;BME280;7275;50.328;8.720;2022-10-16T10:06:23;99870.81;;;22.89;58.06
14383;BME280;7275;50.328;8.720;2022-10-16T10:08:57;99866.03;;;22.92;57.94
14383;BME280;7275;50.328;8.720;2022-10-16T10:11:47;99851.19;;;22.98;58.18
14383;BME280;7275;50.328;8.720;2022-10-16T10:14:19;99878.09;;;23.09;58.38
14383;BME280;7275;50.328;8.720;2022-10-16T10:16:49;99866.63;;;23.17;58.02
14383;BME280;7275;50.328;8.720;2022-10-16T10:19:19;99871.34;;;23.24;57.74
14383;BME280;7275;50.328;8.720;2022-10-16T10:21:47;99873.50;;;23.30;57.82
14383;BME280;7275;50.328;8.720;2022-10-16T10:24:17;99870.59;;;23.33;57.99
14383;BME280;7275;50.328;8.720;2022-10-16T10:26:54;99853.00;;;23.39;57.79
14383;BME280;7275;50.328;8.720;2022-10-16T10:29:41;99856.63;;;23.49;58.02
14383;BME280;7275;50.328;8.720;2022-10-16T10:32:19;99849.03;;;23.63;58.13
14383;BME280;7275;50.328;8.720;2022-10-16T10:35:01;99864.97;;;23.76;57.87
14383;BME280;7275;50.328;8.720;2022-10-16T10:37:43;99857.31;;;23.81;57.58
14383;BME280;7275;50.328;8.720;2022-10-16T10:40:24;99867.41;;;23.79;57.21
14383;BME280;7275;50.328;8.720;2022-10-16T10:43:00;99864.84;;;23.77;57.42
14383;BME280;7275;50.328;8.720;2022-10-16T10:45:41;99868.97;;;23.81;57.54
14383;BME280;7275;50.328;8.720;2022-10-16T10:48:24;99870.97;;;23.89;57.35
14383;BME280;7275;50.328;8.720;2022-10-16T10:51:02;99861.34;;;23.96;57.54
14383;BME280;7275;50.328;8.720;2022-10-16T10:53:38;99866.94;;;24.04;57.25
14383;BME280;7275;50.328;8.720;2022-10-16T10:56:19;99860.56;;;24.05;57.10
14383;BME280;7275;50.328;8.720;2022-10-16T10:59:02;99851.31;;;24.08;57.06
14383;BME280;7275;50.328;8.720;2022-10-16T11:01:40;99854.16;;;24.16;57.34
14383;BME280;7275;50.328;8.720;2022-10-16T11:04:42;99837.13;;;24.53;57.99
14383;BME280;7275;50.328;8.720;2022-10-16T11:07:18;99839.19;;;25.46;57.86
14383;BME280;7275;50.328;8.720;2022-10-16T11:09:51;99841.47;;;26.67;56.96
14383;BME280;7275;50.328;8.720;2022-10-16T11:12:22;99823.44;;;28.12;55.24
14383;BME280;7275;50.328;8.720;2022-10-16T11:14:58;99823.78;;;29.70;53.31
14383;BME280;7275;50.328;8.720;2022-10-16T11:17:31;99817.34;;;31.08;51.24
14383;BME280;7275;50.328;8.720;2022-10-16T11:20:12;99809.69;;;32.35;48.74
14383;BME280;7275;50.328;8.720;2022-10-16T11:22:43;99810.13;;;33.51;47.32
14383;BME280;7275;50.328;8.720;2022-10-16T11:25:16;99818.38;;;34.39;45.73
14383;BME280;7275;50.328;8.720;2022-10-16T11:27:50;99810.03;;;34.86;44.25
14383;BME280;7275;50.328;8.720;2022-10-16T11:30:21;99818.28;;;34.86;42.81
14383;BME280;7275;50.328;8.720;2022-10-16T11:32:57;99820.09;;;34.40;43.53
14383;BME280;7275;50.328;8.720;2022-10-16T11:35:39;99822.00;;;33.58;43.55
14383;BME280;7275;50.328;8.720;2022-10-16T11:38:13;99826.22;;;32.84;44.19
14383;BME280;7275;50.328;8.720;2022-10-16T11:40:43;99828.06;;;32.41;44.70
14383;BME280;7275;50.328;8.720;2022-10-16T11:43:19;99828.41;;;31.88;45.00
14383;BME280;7275;50.328;8.720;2022-10-16T11:45:51;99828.28;;;31.23;45.51
14383;BME280;7275;50.328;8.720;2022-10-16T11:48:24;99823.97;;;30.68;46.13
14383;BME280;7275;50.328;8.720;2022-10-16T11:50:57;99815.16;;;30.28;46.70
14383;BME280;7275;50.328;8.720;2022-10-16T11:53:40;99814.34;;;29.88;46.88
14383;BME280;7275;50.328;8.720;2022-10-16T11:56:12;99816.03;;;29.43;46.91
14383;BME280;7275;50.328;8.720;2022-10-16T11:58:43;99821.53;;;28.94;47.37
14383;BME280;7275;50.328;8.720;2022-10-16T12:01:18;99823.31;;;28.45;47.16
14383;BME280;7275;50.328;8.720;2022-10-16T12:03:58;99824.13;;;28.06;47.64
14383;BME280;7275;50.328;8.720;2022-10-16T12:06:34;99829.00;;;27.68;48.67
14383;BME280;7275;50.328;8.720;2022-10-16T12:09:04;99829.53;;;27.38;49.03
14383;BME280;7275;50.328;8.720;2022-10-16T12:11:36;99835.41;;;27.08;49.28
14383;BME280;7275;50.328;8.720;2022-10-16T12:14:19;99837.19;;;26.74;49.49
14383;BME280;7275;50.328;8.720;2022-10-16T12:16:53;99844.34;;;26.48;49.60
14383;BME280;7275;50.328;8.720;2022-10-16T12:19:22;99843.66;;;26.28;50.26
14383;BME280;7275;50.328;8.720;2022-10-16T12:21:54;99846.28;;;26.20;50.49
14383;BME280;7275;50.328;8.720;2022-10-16T12:24:31;99847.56;;;26.16;50.88
14383;BME280;7275;50.328;8.720;2022-10-16T12:26:59;99854.16;;;26.13;50.79
14383;BME280;7275;50.328;8.720;2022-10-16T12:29:35;99856.88;;;26.04;51.08
14383;BME280;7275;50.328;8.720;2022-10-16T12:32:05;99851.53;;;25.94;50.90
14383;BME280;7275;50.328;8.720;2022-10-16T12:34:38;99847.44;;;25.81;51.28
14383;BME280;7275;50.328;8.720;2022-10-16T12:37:11;99847.19;;;25.74;51.35
14383;BME280;7275;50.328;8.720;2022-10-16T12:39:40;99840.22;;;25.72;51.76
14383;BME280;7275;50.328;8.720;2022-10-16T12:42:24;99841.72;;;25.84;52.01
14383;BME280;7275;50.328;8.720;2022-10-16T12:44:58;99836.59;;;26.18;52.10
14383;BME280;7275;50.328;8.720;2022-10-16T12:47:36;99843.72;;;26.54;51.53
14383;BME280;7275;50.328;8.720;2022-10-16T12:50:24;99854.19;;;26.66;51.12
14383;BME280;7275;50.328;8.720;2022-10-16T12:52:53;99862.72;;;26.71;51.08
14383;BME280;7275;50.328;8.720;2022-10-16T12:55:21;99858.25;;;26.80;50.81
14383;BME280;7275;50.328;8.720;2022-10-16T12:58:03;99864.75;;;26.87;50.86
14383;BME280;7275;50.328;8.720;2022-10-16T13:00:40;99870.50;;;26.84;50.63
14383;BME280;7275;50.328;8.720;2022-10-16T13:03:31;99877.09;;;26.81;50.92
14383;BME280;7275;50.328;8.720;2022-10-16T13:06:12;99866.44;;;27.31;51.31
14383;BME280;7275;50.328;8.720;2022-10-16T13:08:54;99866.78;;;27.80;50.49
14383;BME280;7275;50.328;8.720;2022-10-16T13:11:41;99869.81;;;28.10;49.84
14383;BME280;7275;50.328;8.720;2022-10-16T13:14:37;99873.59;;;28.17;49.01
14383;BME280;7275;50.328;8.720;2022-10-16T13:17:15;99878.06;;;28.26;49.14
14383;BME280;7275;50.328;8.720;2022-10-16T13:19:52;99865.94;;;28.79;49.39
14383;BME280;7275;50.328;8.720;2022-10-16T13:22:26;99866.25;;;29.40;48.53
14383;BME280;7275;50.328;8.720;2022-10-16T13:25:08;99868.63;;;29.59;47.31
14383;BME280;7275;50.328;8.720;2022-10-16T13:27:45;99865.19;;;29.65;47.39
14383;BME280;7275;50.328;8.720;2022-10-16T13:30:19;99871.69;;;29.64;46.68
14383;BME280;7275;50.328;8.720;2022-10-16T13:33:01;99867.28;;;29.47;46.26